Reese River Valley, Nevada Weather observations

Data are for 10 minute period ending at time listed.
 Day   Time   Solar   Ave.   Ave.  Ave.  Vector  Max.   Baro.   Total    
  of    of     Rad.   Air    Rel.  Wind   Wind   Wind  Press.  Precip.   
Year   Day            Temp.  Hum.  Speed  Dir.   Gust                    
2016   (PST)  Kw/m2    F      %     mph   deg.    mph    mb.     in.     
-------------------------------------------------------------------------
 123    9:30   100.00  99999.0   99999  99999.0   99999   99999.0   99999.0   99999.00 
 123    9:40   100.00  99999.0   99999  99999.0   99999   99999.0   99999.0   99999.00 
 123    9:50   100.00  99999.0   99999  99999.0   99999   99999.0   99999.0   99999.00 
 123   10:00   100.00  99999.0   99999  99999.0   99999   99999.0   99999.0   99999.00 
 123   10:10   100.00  99999.0   99999  99999.0   99999   99999.0   99999.0   99999.00 
 123   10:20   100.00  99999.0   99999  99999.0   99999   99999.0   99999.0   99999.00 
 123   10:30   100.00  99999.0   99999  99999.0   99999   99999.0   99999.0   99999.00 
 123   10:40   100.00  99999.0   99999  99999.0   99999   99999.0   99999.0   99999.00 
 123   10:50   100.00  99999.0   99999  99999.0   99999   99999.0   99999.0   99999.00 
 123   11:00   100.00  99999.0   99999  99999.0   99999   99999.0   99999.0   99999.00 
 123   11:10   100.00  99999.0   99999  99999.0   99999   99999.0   99999.0   99999.00 
 123   11:20   100.00  99999.0   99999  99999.0   99999   99999.0   99999.0   99999.00 
 123   11:30   100.00  99999.0   99999  99999.0   99999   99999.0   99999.0   99999.00 
 123   11:40   100.00  99999.0   99999  99999.0   99999   99999.0   99999.0   99999.00 
 123   11:50   100.00  99999.0   99999  99999.0   99999   99999.0   99999.0   99999.00 
 123   12:00   100.00  99999.0   99999  99999.0   99999   99999.0   99999.0   99999.00 
 123   12:10   100.00  99999.0   99999  99999.0   99999   99999.0   99999.0   99999.00 
 123   12:20   100.00  99999.0   99999  99999.0   99999   99999.0   99999.0   99999.00 
 123   12:30   1.11   59.2    40    6.3    80    11.2   817.5    0.00 
 123   12:40   1.10   59.1    39    4.1   354     7.8   817.5    0.00 
 123   12:50   1.12   59.7    39    3.9    35    10.0   817.5    0.00 
 123   13:00   0.60   59.1    37    4.2   124     8.9   817.5    0.00 
 123   13:10   1.13   59.7    40    4.4   253    11.5   817.5    0.00 
 123   13:20   0.98   60.4    38    3.9    60     8.9   817.4    0.00 
 123   13:30   0.25   59.2    38    3.4    82     7.2   817.4    0.00 
 123   13:40   0.27   58.6    39    2.0   184     7.7   817.4    0.00 
 123   13:50   0.33   57.1    48   11.1   228    16.9   817.3    0.00 
 123   14:00   0.53   56.1    49   10.6   228    15.2   817.3    0.00 
 123   14:10   0.88   57.6    50   12.0   240    17.3   817.2    0.00 
 123   14:20   1.06   59.2    48   11.6   251    16.9   817.2    0.00 
 123   14:30   0.79   58.9    47   10.7   250    15.5   817.2    0.00 
 123   14:40   0.65   58.6    46   11.9   270    16.1   817.1    0.00 
 123   14:50   0.37   57.1    49    9.0   262    13.0   817.1    0.00 
 123   15:00   0.35   55.8    49    9.1   277    13.4   817.0    0.00 
 123   15:10   0.33   56.5    47    6.2   268     9.3   816.9    0.00 
 123   15:20   0.31   56.5    49    5.3   264     7.7   816.9    0.00 
 123   15:30   0.56   58.0    42    4.1   264     7.8   816.8    0.00 
 123   15:40   0.60   59.4    38    3.8   265     8.0   816.8    0.00 
 123   15:50   0.62   61.1    36    2.7   191     6.4   816.8    0.00 
 123   16:00   0.54   60.7    36    3.9   150     7.9   816.8    0.00 
 123   16:10   0.53   61.5    33    3.1   176     7.5   816.7    0.00 
 123   16:20   0.47   62.7    30    1.6   158     3.0   816.7    0.00 
 123   16:30   0.16   61.8    32    1.2   255     4.2   816.7    0.00 
 123   16:40   0.13   59.8    35    1.1   228     3.9   816.6    0.00 
 123   16:50   0.16   58.6    41    3.1   208     4.7   816.5    0.00 
 123   17:00   0.15   57.4    44    3.6   229     5.0   816.5    0.00 
 123   17:10   0.15   57.0    46    3.0   245     5.6   816.5    0.00 
 123   17:20   0.12   57.5    46    2.2   233     2.9   816.4    0.00 
 123   17:30   0.11   57.7    48    1.1   212     2.3   816.4    0.00 
 123   17:40   0.09   57.4    48    3.8   130     5.8   816.3    0.00 
 123   17:50   0.07   56.5    48    5.3   139     7.5   816.3    0.00 
 123   18:00   0.07   56.0    48    2.5   157     4.2   816.3    0.00 
 123   18:10   0.05   56.2    50    2.1   157     3.8   816.3    0.00 
 123   18:20   0.05   55.5    60    2.4   134     4.2   816.3    0.00 
 123   18:30   0.02   53.6    64    3.6   128     5.0   816.3    0.00 
 123   18:40   0.01   52.2    65    4.7   121     6.5   816.3    0.00 
 123   18:50   0.01   50.9    63    5.7   123     7.4   816.4    0.00 
 123   19:00   0.00   50.1    62    6.5   116     8.6   816.4    0.00 
 123   19:10   0.00   48.6    66    5.0   159     7.4   816.4    0.00 
 123   19:20   0.00   49.7    54    7.7   181    13.7   816.4    0.00 
 123   19:30   0.00   51.5    51    5.1   156     9.6   816.6    0.00 
 123   19:40   0.00   49.1    58    4.3   177     5.8   816.8    0.00 
 123   19:50   0.00   47.0    66    4.6   159     6.1   816.8    0.00 
 123   20:00   0.00   44.9    72    2.9   169     5.0   816.9    0.00 
 123   20:10   0.00   45.9    69    3.2   168     4.9   816.9    0.00 
 123   20:20   0.00   42.4    76    4.3   170     6.1   817.0    0.00 
 123   20:30   0.00   42.4    75    4.1   176     5.1   817.1    0.00 
 123   20:40   0.00   43.7    71    3.6   189     4.8   817.1    0.00 
 123   20:50   0.00   42.8    76    3.9   192     5.0   817.1    0.00 
 123   21:00   0.00   41.6    79    5.7   208     7.1   817.2    0.00 
 123   21:10   0.00   41.2    82    5.3   206     6.9   817.3    0.00 
 123   21:20   0.00   40.4    83    3.8   194     5.2   817.3    0.00 
 123   21:30   0.00   40.4    81    4.8   214     6.5   817.3    0.00 
 123   21:40   0.00   39.6    83    5.7   228     7.4   817.3    0.00 
 123   21:50   0.00   39.8    85    3.9   219     4.8   817.3    0.00 
 123   22:00   0.00   39.9    84    5.5   235     8.8   817.3    0.00 
 123   22:10   0.00   39.7    84    6.7   226     9.7   817.3    0.00 
 123   22:20   0.00   40.3    83    6.1   200     7.7   817.4    0.00 
 123   22:30   0.00   40.1    83    6.4   213     8.8   817.4    0.00 
 123   22:40   0.00   39.1    83    5.7   233     7.5   817.5    0.00 
 123   22:50   0.00   38.6    85    3.6   225     5.6   817.5    0.00 
 123   23:00   0.00   38.2    86    5.0   224     9.1   817.5    0.00 
 123   23:10   0.00   38.2    87    7.6   232    11.1   817.5    0.00 
 123   23:20   0.00   38.4    86    6.8   233     9.7   817.5    0.00 
 123   23:30   100.00  99999.0   99999  99999.0   99999   99999.0   99999.0   99999.00 
 123   23:40   100.00  99999.0   99999  99999.0   99999   99999.0   99999.0   99999.00 
 123   23:50   100.00  99999.0   99999  99999.0   99999   99999.0   99999.0   99999.00 
 124    0:00   100.00  99999.0   99999  99999.0   99999   99999.0   99999.0   99999.00 
 124    0:10   100.00  99999.0   99999  99999.0   99999   99999.0   99999.0   99999.00 
 124    0:20   100.00  99999.0   99999  99999.0   99999   99999.0   99999.0   99999.00 
 124    0:30   100.00  99999.0   99999  99999.0   99999   99999.0   99999.0   99999.00 
 124    0:40   100.00  99999.0   99999  99999.0   99999   99999.0   99999.0   99999.00 
 124    0:50   100.00  99999.0   99999  99999.0   99999   99999.0   99999.0   99999.00 
 124    1:00   100.00  99999.0   99999  99999.0   99999   99999.0   99999.0   99999.00 
 124    1:10   100.00  99999.0   99999  99999.0   99999   99999.0   99999.0   99999.00 
 124    1:20   100.00  99999.0   99999  99999.0   99999   99999.0   99999.0   99999.00 
 124    1:30   0.00   36.8    86    4.6   191     7.2   817.5    0.00 
 124    1:40   0.00   36.0    86    4.1   208     7.9   817.5    0.00 
 124    1:50   0.00   36.0    87    1.1   137     3.1   817.6    0.00 
 124    2:00   0.00   35.8    87    2.6   191     4.6   817.7    0.00 
 124    2:10   0.00   35.0    88    3.8   246     6.6   817.8    0.00 
 124    2:20   0.00   35.5    87    4.7   234     6.6   817.8    0.00 
 124    2:30   0.00   35.5    85    6.5   240     8.8   817.8    0.00 
 124    2:40   0.00   34.6    87    6.3   247     9.1   817.9    0.00 
 124    2:50   0.00   34.1    88    4.3   255     6.2   817.9    0.00 
 124    3:00   0.00   33.8    89    3.5   242     5.3   818.0    0.00 
 124    3:10   0.00   33.7    89    5.6   238     8.0   818.0    0.00 
 124    3:20   0.00   33.8    89    6.6   234     8.8   818.0    0.00 
 124    3:30   0.00   33.7    89    6.2   234     8.5   817.9    0.00 
 124    3:40   0.00   33.4    90    7.4   228    10.4   817.9    0.00 
 124    3:50   0.00   33.8    89    5.8   192     8.8   817.9    0.00 
 124    4:00   0.00   35.0    86    6.3   204     9.4   818.0    0.00 
 124    4:10   0.00   34.1    86    7.2   225     9.6   818.0    0.00 
 124    4:20   0.00   33.2    89    7.9   226    10.4   818.0    0.00 
 124    4:30   0.00   33.3    89    8.7   232    11.3   818.1    0.00 
 124    4:40   0.00   33.2    89    8.1   233    10.9   818.2    0.00 
 124    4:50   0.01   33.0    89    7.1   226     9.5   818.2    0.00 
 124    5:00   0.01   32.7    90    7.3   211     9.6   818.3    0.00 
 124    5:10   0.01   32.9    90    6.5   196     8.6   818.4    0.00 
 124    5:20   0.02   33.2    90    7.6   202     9.6   818.5    0.00 
 124    5:30   0.06   33.8    89    8.2   214    10.3   818.6    0.00 
 124    5:40   0.11   35.4    86    8.2   217    10.8   818.6    0.00 
 124    5:50   0.14   36.8    85    6.9   210     9.6   818.6    0.00 
 124    6:00   0.18   39.4    80    6.6   215     9.2   818.7    0.00 
 124    6:10   0.21   41.3    76    7.5   220    10.4   818.6    0.00 
 124    6:20   0.25   42.5    74    8.4   226    12.4   818.6    0.00 
 124    6:30   0.28   43.7    73    7.6   228    10.4   818.4    0.00 
 124    6:40   0.32   45.2    72    6.7   224    10.9   818.4    0.00 
 124    6:50   0.36   46.9    68    6.8   221    10.2   818.3    0.00 
 124    7:00   0.40   48.1    64    6.4   220     9.6   818.4    0.00 
 124    7:10   0.43   49.1    64    5.0   214     7.5   818.3    0.00 
 124    7:20   0.47   50.1    64    4.8   229     8.2   818.3    0.00 
 124    7:30   0.51   51.4    62    4.6   228     6.5   818.4    0.00 
 124    7:40   0.55   53.0    58    4.8   226     7.7   818.5    0.00 
 124    7:50   0.58   54.0    56    5.0   245     7.7   818.6    0.00 
 124    8:00   0.62   55.0    51    3.7   244     6.2   818.6    0.00 
 124    8:10   0.65   56.9    44    1.6   214     3.9   818.7    0.00 
 124    8:20   0.69   57.0    47    3.6    21     6.3   818.7    0.00 
 124    8:30   0.72   56.5    48    3.4    32     5.9   818.8    0.00 
 124    8:40   0.75   56.9    51    4.0    53     6.7   818.9    0.00 
 124    8:50   0.78   57.7    47    3.1    20     5.6   818.9    0.00 
 124    9:00   0.81   58.6    46    3.2    86     6.4   818.9    0.00 
 124    9:10   0.84   59.8    37    8.6   176    15.7   818.8    0.00 
 124    9:20   0.84   60.5    34    8.2   179    13.4   818.8    0.00 

Return to Reese River Valley graphs page.


Western Regional Climate Center,wrcc@dri.edu